createdAt,value
2024-01-11T00:01:47.893Z,9.50
2024-01-11T00:06:51.484Z,10.00
2024-01-11T00:11:53.368Z,9.33
2024-01-11T00:16:55.264Z,9.00
2024-01-11T00:21:56.913Z,14.23
2024-01-11T00:26:58.593Z,8.93
2024-01-11T00:32:00.520Z,8.80
2024-01-11T00:37:02.198Z,9.50
2024-01-11T00:42:03.987Z,11.53
2024-01-11T00:47:05.808Z,9.13
2024-01-11T00:52:07.630Z,12.23
2024-01-11T00:57:09.325Z,10.20
2024-01-11T01:02:11.194Z,8.93
2024-01-11T01:07:12.877Z,15.43
2024-01-11T01:12:14.510Z,9.83
2024-01-11T01:17:17.218Z,10.47
2024-01-11T01:22:19.331Z,9.67
2024-01-11T01:27:23.647Z,11.00
2024-01-11T01:32:25.492Z,15.10
2024-01-11T01:37:27.497Z,10.47
2024-01-11T01:42:29.091Z,9.30
2024-01-11T01:47:31.006Z,9.70
2024-01-11T01:52:33.884Z,8.90
2024-01-11T01:57:35.845Z,10.37
2024-01-11T02:02:39.464Z,11.43
2024-01-11T02:07:41.774Z,9.33
2024-01-11T02:12:43.417Z,10.60
2024-01-11T02:17:45.514Z,9.83
2024-01-11T02:22:51.356Z,9.27
2024-01-11T02:27:53.078Z,9.33
2024-01-11T02:32:55.084Z,10.47
2024-01-11T02:37:57.284Z,14.60
2024-01-11T02:42:58.883Z,14.90
2024-01-11T02:48:00.922Z,11.70
2024-01-11T02:53:02.816Z,9.07
2024-01-11T02:58:04.569Z,14.93
2024-01-11T03:03:06.875Z,10.80
2024-01-11T03:08:08.633Z,9.90
2024-01-11T03:13:10.249Z,9.30
2024-01-11T03:18:12.109Z,8.10
2024-01-11T03:23:13.919Z,16.47
2024-01-11T03:28:16.170Z,9.67
2024-01-11T03:33:18.026Z,10.17
2024-01-11T03:38:19.900Z,8.90
2024-01-11T03:43:21.772Z,9.17
2024-01-11T03:48:23.755Z,8.00
2024-01-11T03:53:25.608Z,10.27
2024-01-11T03:58:27.848Z,9.83
2024-01-11T04:03:29.809Z,9.47
2024-01-11T04:08:31.701Z,9.50
2024-01-11T04:13:33.356Z,8.00
2024-01-11T04:18:35.452Z,9.43
2024-01-11T04:23:37.279Z,9.17
2024-01-11T04:28:39.067Z,10.53
2024-01-11T04:33:47.470Z,9.67
2024-01-11T04:38:49.277Z,10.10
2024-01-11T04:43:51.236Z,11.27
2024-01-11T04:48:53.890Z,8.03
2024-01-11T04:53:55.716Z,10.80
2024-01-11T04:58:57.467Z,8.83
2024-01-11T05:03:59.082Z,11.20
2024-01-11T05:09:00.740Z,10.17
2024-01-11T05:14:03.053Z,10.07
2024-01-11T05:19:04.893Z,9.70
2024-01-11T05:24:09.528Z,9.87
2024-01-11T05:29:12.837Z,9.43
2024-01-11T05:34:14.653Z,9.33
2024-01-11T05:39:16.635Z,9.20
2024-01-11T05:44:18.245Z,8.50
2024-01-11T05:49:19.961Z,10.33
2024-01-11T05:54:21.684Z,13.97
2024-01-11T05:59:23.576Z,8.27
2024-01-11T06:04:25.350Z,9.90
2024-01-11T06:09:27.308Z,10.57
2024-01-11T06:14:29.030Z,9.30
2024-01-11T06:19:30.916Z,15.43
2024-01-11T06:24:32.936Z,10.43
2024-01-11T06:29:34.602Z,10.13
2024-01-11T06:34:37.142Z,9.97
2024-01-11T06:39:42.829Z,10.23
2024-01-11T06:44:44.529Z,10.57
2024-01-11T06:49:46.299Z,10.50
2024-01-11T06:54:48.034Z,9.87
2024-01-11T06:59:50.495Z,10.03
2024-01-11T07:04:52.285Z,10.87
2024-01-11T07:09:56.626Z,9.40
2024-01-11T07:14:58.353Z,10.30
2024-01-11T07:20:00.446Z,10.03
2024-01-11T07:25:02.295Z,9.87
2024-01-11T07:30:04.381Z,11.70
2024-01-11T07:35:11.401Z,10.37
2024-01-11T07:40:15.260Z,15.43
2024-01-11T07:45:16.993Z,11.03
2024-01-11T07:50:18.864Z,10.40
2024-01-11T07:55:25.336Z,10.93
2024-01-11T08:00:27.163Z,11.47
2024-01-11T08:05:29.001Z,10.67
2024-01-11T08:10:33.547Z,9.67
2024-01-11T08:15:39.480Z,9.70
2024-01-11T08:20:41.780Z,10.10
2024-01-11T08:25:43.409Z,11.50
2024-01-11T08:30:45.778Z,10.23
2024-01-11T08:35:48.112Z,10.27
2024-01-11T08:40:50.228Z,8.53
2024-01-11T08:45:51.875Z,9.27
2024-01-11T08:50:54.790Z,17.27
2024-01-11T08:55:56.589Z,9.93
2024-01-11T09:00:58.718Z,10.03
2024-01-11T09:06:00.672Z,10.20
2024-01-11T09:11:04.253Z,9.80
2024-01-11T09:16:08.001Z,10.13
2024-01-11T09:21:09.642Z,9.57
2024-01-11T09:26:11.583Z,10.23
2024-01-11T09:31:13.315Z,12.30
2024-01-11T09:36:15.233Z,10.83
2024-01-11T09:41:17.427Z,11.13
2024-01-11T09:46:19.489Z,12.27
2024-01-11T09:51:21.530Z,9.77
2024-01-11T09:56:24.561Z,11.47
2024-01-11T10:01:26.471Z,10.50
2024-01-11T10:06:28.641Z,12.50
2024-01-11T10:11:30.374Z,12.23
2024-01-11T10:16:32.890Z,11.70
2024-01-11T10:21:34.560Z,12.33
2024-01-11T10:26:37.023Z,11.57
2024-01-11T10:31:38.724Z,12.20
2024-01-11T10:36:42.181Z,12.17
2024-01-11T10:41:49.106Z,12.57
2024-01-11T10:46:51.845Z,12.80
2024-01-11T10:52:03.485Z,12.60
2024-01-11T10:57:06.467Z,11.20
2024-01-11T11:02:13.082Z,12.70
2024-01-11T11:07:16.137Z,12.53
2024-01-11T11:12:17.909Z,13.37
2024-01-11T11:17:19.767Z,12.27
2024-01-11T11:22:22.856Z,11.70
2024-01-11T11:27:24.465Z,13.00
2024-01-11T11:32:39.417Z,13.33
2024-01-11T11:37:41.408Z,13.40
2024-01-11T11:42:43.852Z,13.20
2024-01-11T11:47:47.184Z,13.47
2024-01-11T11:52:55.180Z,13.43
2024-01-11T11:57:56.810Z,14.07
2024-01-11T12:02:59.379Z,13.70
2024-01-11T12:08:01.794Z,15.20
2024-01-11T12:13:03.622Z,14.27
2024-01-11T12:18:05.644Z,13.97
2024-01-11T12:23:07.937Z,15.37
2024-01-11T12:28:13.546Z,14.13
2024-01-11T12:33:15.378Z,14.53
2024-01-11T12:38:17.142Z,14.27
2024-01-11T12:43:18.943Z,15.23
2024-01-11T12:48:21.627Z,15.70
2024-01-11T12:53:25.502Z,15.10
2024-01-11T12:58:27.696Z,15.23
2024-01-11T13:03:29.776Z,15.93
2024-01-11T13:08:33.001Z,15.23
2024-01-11T13:13:35.993Z,16.73
2024-01-11T13:18:37.982Z,17.33
2024-01-11T13:23:41.347Z,15.93
2024-01-11T13:28:43.329Z,16.10
2024-01-11T13:33:45.385Z,16.53
2024-01-11T13:38:47.287Z,16.50
2024-01-11T13:43:49.141Z,18.20
2024-01-11T13:48:50.880Z,15.73
2024-01-11T13:53:52.633Z,16.57
2024-01-11T13:58:54.379Z,17.53
2024-01-11T14:03:56.268Z,16.87
2024-01-11T14:08:58.158Z,16.80
2024-01-11T14:14:00.750Z,18.63
2024-01-11T14:19:03.802Z,18.93
2024-01-11T14:24:08.490Z,16.27
2024-01-11T14:29:10.253Z,16.03
2024-01-11T14:34:13.197Z,16.50
2024-01-11T14:39:15.531Z,15.73
2024-01-11T14:44:17.237Z,16.77
2024-01-11T14:49:19.015Z,16.93
2024-01-11T14:54:21.551Z,15.07
2024-01-11T14:59:25.251Z,16.00
2024-01-11T15:04:27.363Z,15.63
2024-01-11T15:09:31.046Z,15.63
2024-01-11T15:14:32.878Z,15.43
2024-01-11T15:19:34.514Z,15.47
2024-01-11T15:24:36.520Z,16.77
2024-01-11T15:29:42.050Z,15.43
2024-01-11T15:34:43.947Z,17.23
2024-01-11T15:39:45.596Z,17.80
2024-01-11T15:44:47.254Z,16.43
2024-01-11T15:49:48.953Z,18.17
2024-01-11T15:54:50.720Z,18.40
2024-01-11T15:59:52.548Z,15.47
2024-01-11T16:04:54.260Z,16.40
2024-01-11T16:09:56.042Z,17.07
2024-01-11T16:14:59.349Z,17.23
2024-01-11T16:20:01.029Z,17.17
2024-01-11T16:25:03.041Z,17.17
2024-01-11T16:30:05.498Z,17.60
2024-01-11T16:35:07.546Z,17.33
2024-01-11T16:40:11.197Z,18.17
2024-01-11T16:45:12.978Z,19.03
2024-01-11T16:50:14.677Z,18.07
2024-01-11T16:55:16.352Z,17.80
2024-01-11T17:00:20.339Z,18.13
2024-01-11T17:05:22.601Z,18.43
2024-01-11T17:10:25.248Z,17.00
2024-01-11T17:15:28.047Z,16.70
2024-01-11T17:20:30.139Z,17.30
2024-01-11T17:25:31.824Z,17.87
2024-01-11T17:30:33.424Z,18.40
2024-01-11T17:35:35.122Z,17.17
2024-01-11T17:40:37.134Z,18.77
2024-01-11T17:45:38.835Z,16.53
2024-01-11T17:50:40.522Z,16.73
2024-01-11T17:55:42.319Z,15.77
2024-01-11T18:00:44.179Z,15.67
2024-01-11T18:05:47.151Z,14.83
2024-01-11T18:10:48.782Z,15.10
2024-01-11T18:15:51.928Z,15.17
2024-01-11T18:20:53.829Z,15.20
2024-01-11T18:25:56.678Z,13.90
2024-01-11T18:30:58.494Z,11.67
2024-01-11T18:36:00.400Z,13.47
2024-01-11T18:41:02.272Z,13.40
2024-01-11T18:46:04.125Z,12.80
2024-01-11T18:51:08.073Z,11.97
2024-01-11T18:56:14.973Z,11.83
2024-01-11T19:01:16.720Z,12.37
2024-01-11T19:06:18.543Z,12.87
2024-01-11T19:11:20.483Z,12.00
2024-01-11T19:16:22.661Z,12.90
2024-01-11T19:21:24.673Z,12.97
2024-01-11T19:26:27.639Z,12.60
2024-01-11T19:31:30.060Z,12.70
2024-01-11T19:36:31.728Z,12.90
2024-01-11T19:41:33.470Z,11.50
2024-01-11T19:46:35.136Z,15.37
2024-01-11T19:51:36.869Z,13.40
2024-01-11T19:56:39.172Z,14.13
2024-01-11T20:01:41.315Z,14.33
2024-01-11T20:06:44.686Z,13.13
2024-01-11T20:11:46.601Z,12.93
2024-01-11T20:16:48.298Z,13.20
2024-01-11T20:21:50.211Z,12.53
2024-01-11T20:26:52.618Z,13.20
2024-01-11T20:31:54.227Z,13.80
2024-01-11T20:36:56.603Z,14.53
2024-01-11T20:41:59.055Z,12.30
2024-01-11T20:47:00.847Z,10.50
2024-01-11T20:52:02.529Z,12.30
2024-01-11T20:57:06.366Z,11.27
2024-01-11T21:02:08.012Z,11.67
2024-01-11T21:07:09.935Z,11.43
2024-01-11T21:12:11.846Z,11.23
2024-01-11T21:17:13.570Z,11.23
2024-01-11T21:22:15.271Z,12.27
2024-01-11T21:27:17.189Z,11.53
2024-01-11T21:32:20.027Z,13.63
2024-01-11T21:37:21.797Z,11.93
2024-01-11T21:42:24.206Z,12.33
2024-01-11T21:47:26.156Z,11.13
2024-01-11T21:52:27.808Z,10.53
2024-01-11T21:57:29.634Z,10.67
2024-01-11T22:02:31.996Z,10.97
2024-01-11T22:07:33.608Z,11.73
2024-01-11T22:12:35.192Z,10.63
2024-01-11T22:17:37.199Z,10.90
2024-01-11T22:22:38.892Z,11.47
2024-01-11T22:27:42.780Z,12.67
2024-01-11T22:32:45.123Z,11.07
2024-01-11T22:37:46.872Z,10.83
2024-01-11T22:42:48.506Z,13.97
2024-01-11T22:47:50.281Z,12.10
2024-01-11T22:52:51.860Z,11.10
2024-01-11T22:57:53.473Z,12.00
2024-01-11T23:02:55.152Z,11.80
2024-01-11T23:07:56.840Z,11.00
2024-01-11T23:12:58.531Z,11.77
2024-01-11T23:18:00.925Z,12.17
2024-01-11T23:23:02.931Z,13.33
2024-01-11T23:28:04.860Z,12.90
2024-01-11T23:33:10.328Z,13.57
2024-01-11T23:38:12.294Z,13.70
2024-01-11T23:43:13.953Z,12.50
2024-01-11T23:48:15.780Z,11.93
2024-01-11T23:53:17.505Z,13.10
2024-01-11T23:58:19.147Z,12.77
